createdAt,value
2019-01-04T00:00:15.008Z,305.75
2019-01-04T00:01:15.835Z,306.10
2019-01-04T00:02:15.059Z,306.56
2019-01-04T00:03:16.190Z,306.29
2019-01-04T00:04:14.968Z,306.17
2019-01-04T00:05:15.040Z,306.21
2019-01-04T00:06:14.947Z,306.65
2019-01-04T00:07:14.967Z,306.72
2019-01-04T00:08:14.932Z,306.72
2019-01-04T00:09:14.923Z,307.18
2019-01-04T00:10:15.117Z,306.77
2019-01-04T00:11:14.928Z,306.53
2019-01-04T00:12:14.887Z,306.48
2019-01-04T00:13:14.873Z,306.77
2019-01-04T00:14:14.875Z,306.27
2019-01-04T00:15:14.859Z,306.70
2019-01-04T00:16:14.848Z,306.90
2019-01-04T00:17:14.818Z,306.78
2019-01-04T00:18:15.068Z,307.24
2019-01-04T00:19:14.801Z,306.85
2019-01-04T00:20:14.823Z,307.05
2019-01-04T00:21:14.809Z,306.72
2019-01-04T00:22:14.774Z,307.00
2019-01-04T00:23:14.812Z,306.78
2019-01-04T00:24:14.760Z,306.98
2019-01-04T00:25:14.806Z,307.08
2019-01-04T00:26:14.770Z,306.64
2019-01-04T00:27:14.740Z,307.24
2019-01-04T00:28:14.733Z,307.06
2019-01-04T00:29:14.717Z,307.12
2019-01-04T00:30:14.682Z,307.24
2019-01-04T00:31:14.698Z,306.97
2019-01-04T00:32:14.688Z,306.87
2019-01-04T00:33:14.683Z,307.00
2019-01-04T00:34:14.668Z,306.94
2019-01-04T00:35:14.735Z,306.54
2019-01-04T00:36:14.635Z,307.05
2019-01-04T00:37:14.622Z,306.76
2019-01-04T00:38:14.624Z,307.43
2019-01-04T00:39:14.634Z,307.19
2019-01-04T00:40:14.588Z,306.64
2019-01-04T00:41:14.942Z,306.76
2019-01-04T00:42:14.570Z,307.03
2019-01-04T00:43:14.584Z,307.00
2019-01-04T00:44:14.559Z,307.09
2019-01-04T00:45:14.576Z,306.90
2019-01-04T00:46:14.539Z,307.02
2019-01-04T00:47:14.523Z,307.15
2019-01-04T00:48:14.534Z,306.84
2019-01-04T00:49:14.530Z,306.79
2019-01-04T00:50:14.532Z,306.65
2019-01-04T00:51:14.503Z,306.84
2019-01-04T00:52:14.496Z,306.84
2019-01-04T00:53:14.464Z,306.47
2019-01-04T00:54:14.455Z,306.20
2019-01-04T00:55:15.299Z,306.62
2019-01-04T00:56:14.457Z,306.62
2019-01-04T00:57:14.423Z,306.73
2019-01-04T00:58:14.422Z,306.59
2019-01-04T00:59:14.386Z,307.12
2019-01-04T01:00:14.403Z,306.74
2019-01-04T01:01:14.402Z,307.23
2019-01-04T01:02:14.366Z,306.68
2019-01-04T01:03:14.349Z,306.65
2019-01-04T01:04:14.347Z,306.83
2019-01-04T01:05:14.343Z,307.15
2019-01-04T01:06:14.347Z,306.54
2019-01-04T01:07:15.528Z,306.88
2019-01-04T01:08:14.316Z,306.60
2019-01-04T01:09:14.360Z,306.87
2019-01-04T01:10:14.273Z,307.13
2019-01-04T01:11:14.279Z,307.46
2019-01-04T01:12:14.267Z,307.38
2019-01-04T01:13:14.259Z,307.16
2019-01-04T01:14:14.246Z,307.23
2019-01-04T01:15:14.258Z,307.72
2019-01-04T01:16:14.214Z,307.47
2019-01-04T01:17:14.225Z,307.54
2019-01-04T01:18:14.197Z,307.63
2019-01-04T01:19:14.219Z,307.30
2019-01-04T01:20:14.163Z,307.43
2019-01-04T01:21:14.162Z,307.69
2019-01-04T01:22:14.177Z,307.31
2019-01-04T01:23:14.143Z,307.91
2019-01-04T01:24:14.176Z,307.88
2019-01-04T01:25:14.191Z,306.89
2019-01-04T01:26:14.124Z,307.13
2019-01-04T01:27:14.141Z,306.50
2019-01-04T01:28:14.096Z,306.27
2019-01-04T01:29:14.091Z,306.60
2019-01-04T01:30:14.107Z,306.66
2019-01-04T01:31:14.070Z,306.62
2019-01-04T01:32:14.086Z,306.28
2019-01-04T01:33:14.054Z,306.61
2019-01-04T01:34:14.042Z,306.46
2019-01-04T01:35:14.027Z,306.47
2019-01-04T01:36:14.029Z,306.42
2019-01-04T01:37:14.026Z,306.68
2019-01-04T01:38:14.029Z,306.76
2019-01-04T01:39:13.983Z,306.54
2019-01-04T01:40:14.009Z,306.30
2019-01-04T01:41:13.975Z,306.18
2019-01-04T01:42:13.958Z,306.72
2019-01-04T01:43:13.947Z,306.30
2019-01-04T01:44:13.954Z,306.49
2019-01-04T01:45:13.949Z,306.46
2019-01-04T01:46:13.929Z,306.48
2019-01-04T01:47:13.903Z,305.93
2019-01-04T01:48:13.902Z,306.50
2019-01-04T01:49:13.886Z,306.23
2019-01-04T01:50:13.937Z,306.52
2019-01-04T01:51:13.885Z,306.22
2019-01-04T01:52:13.858Z,306.39
2019-01-04T01:53:13.832Z,305.85
2019-01-04T01:54:13.851Z,306.10
2019-01-04T01:55:13.823Z,305.80
2019-01-04T01:56:13.827Z,306.37
2019-01-04T01:57:13.844Z,306.11
2019-01-04T01:58:13.788Z,305.78
2019-01-04T01:59:13.799Z,305.61
2019-01-04T02:00:13.766Z,305.86
2019-01-04T02:01:13.773Z,305.72
2019-01-04T02:02:13.794Z,305.65
2019-01-04T02:03:13.734Z,305.18
2019-01-04T02:04:13.712Z,305.95
2019-01-04T02:05:13.739Z,306.09
2019-01-04T02:06:13.723Z,306.04
2019-01-04T02:07:13.706Z,305.72
2019-01-04T02:08:13.683Z,305.94
2019-01-04T02:09:13.660Z,305.99
2019-01-04T02:10:13.670Z,306.66
2019-01-04T02:11:13.656Z,306.36
2019-01-04T02:12:13.677Z,306.25
2019-01-04T02:13:22.894Z,305.90
2019-01-04T02:14:13.629Z,306.38
2019-01-04T02:15:13.601Z,306.15
2019-01-04T02:16:13.602Z,307.06
2019-01-04T02:17:13.622Z,306.20
2019-01-04T02:18:13.572Z,306.56
2019-01-04T02:19:13.603Z,306.15
2019-01-04T02:20:13.585Z,306.16
2019-01-04T02:21:13.548Z,306.41
2019-01-04T02:22:13.571Z,306.10
2019-01-04T02:23:13.582Z,306.16
2019-01-04T02:24:13.533Z,306.48
2019-01-04T02:25:13.534Z,306.58
2019-01-04T02:26:13.520Z,306.17
2019-01-04T02:27:13.528Z,306.37
2019-01-04T02:28:13.487Z,306.50
2019-01-04T02:29:13.458Z,306.44
2019-01-04T02:30:13.476Z,306.10
2019-01-04T02:31:13.458Z,306.38
2019-01-04T02:32:13.485Z,306.61
2019-01-04T02:33:13.483Z,306.02
2019-01-04T02:34:13.573Z,306.10
2019-01-04T02:35:13.407Z,306.33
2019-01-04T02:36:13.472Z,305.86
2019-01-04T02:37:13.409Z,305.65
2019-01-04T02:38:13.402Z,306.15
2019-01-04T02:39:13.439Z,306.80
2019-01-04T02:40:13.405Z,305.98
2019-01-04T02:41:13.366Z,306.88
2019-01-04T02:42:13.362Z,307.03
2019-01-04T02:43:13.382Z,306.53
2019-01-04T02:44:13.325Z,306.83
2019-01-04T02:45:13.317Z,307.43
2019-01-04T02:46:13.321Z,307.64
2019-01-04T02:47:13.346Z,306.94
2019-01-04T02:48:13.357Z,306.86
2019-01-04T02:49:13.331Z,306.80
2019-01-04T02:50:13.284Z,306.58
2019-01-04T02:51:13.290Z,306.75
2019-01-04T02:52:13.225Z,307.02
2019-01-04T02:53:13.224Z,306.70
2019-01-04T02:54:13.259Z,307.08
2019-01-04T02:55:13.262Z,306.77
2019-01-04T02:56:13.210Z,306.67
2019-01-04T02:57:13.198Z,306.82
2019-01-04T02:58:13.216Z,306.63
2019-01-04T02:59:13.161Z,306.88
2019-01-04T03:00:13.182Z,306.75
2019-01-04T03:01:13.180Z,306.80
2019-01-04T03:02:13.151Z,306.94
2019-01-04T03:03:13.169Z,306.62
2019-01-04T03:04:13.113Z,307.20
2019-01-04T03:05:13.139Z,306.25
2019-01-04T03:06:13.141Z,306.86
2019-01-04T03:07:13.118Z,307.55
2019-01-04T03:08:13.070Z,307.28
2019-01-04T03:09:13.072Z,306.94
2019-01-04T03:10:13.065Z,306.86
2019-01-04T03:11:13.037Z,306.45
2019-01-04T03:12:13.091Z,306.45
2019-01-04T03:13:13.038Z,306.17
2019-01-04T03:14:13.042Z,306.07
2019-01-04T03:15:13.039Z,306.37
2019-01-04T03:16:13.010Z,306.95
2019-01-04T03:17:13.070Z,306.37
2019-01-04T03:18:12.992Z,306.20
2019-01-04T03:19:12.975Z,306.53
2019-01-04T03:20:12.988Z,306.60
2019-01-04T03:21:13.040Z,306.45
2019-01-04T03:22:12.972Z,306.23
2019-01-04T03:23:12.939Z,306.81
2019-01-04T03:24:12.932Z,306.43
2019-01-04T03:25:13.003Z,306.16
2019-01-04T03:26:12.891Z,306.17
2019-01-04T03:27:12.918Z,305.91
2019-01-04T03:28:12.933Z,305.85
2019-01-04T03:29:12.948Z,306.41
2019-01-04T03:30:12.931Z,306.38
2019-01-04T03:31:12.857Z,306.36
2019-01-04T03:32:12.869Z,306.35
2019-01-04T03:33:12.840Z,306.07
2019-01-04T03:34:12.853Z,305.99
2019-01-04T03:35:12.813Z,306.12
2019-01-04T03:36:12.789Z,306.05
2019-01-04T03:37:12.807Z,306.07
2019-01-04T03:38:12.772Z,305.62
2019-01-04T03:39:12.813Z,305.93
2019-01-04T03:40:12.793Z,306.29
2019-01-04T03:41:12.765Z,306.32
2019-01-04T03:42:12.740Z,306.29
2019-01-04T03:43:12.721Z,306.57
2019-01-04T03:44:12.756Z,306.23
2019-01-04T03:45:12.710Z,306.41
2019-01-04T03:46:12.696Z,306.17
2019-01-04T03:47:12.678Z,306.20
2019-01-04T03:48:12.708Z,306.33
2019-01-04T03:49:12.686Z,306.28
2019-01-04T03:50:12.696Z,306.15
2019-01-04T03:51:12.647Z,306.24
2019-01-04T03:52:12.644Z,306.32
2019-01-04T03:53:12.646Z,306.54
2019-01-04T03:54:12.615Z,306.13
2019-01-04T03:55:12.620Z,306.14
2019-01-04T03:56:12.615Z,306.40
2019-01-04T03:57:12.636Z,306.44
2019-01-04T03:58:12.597Z,306.28
2019-01-04T03:59:12.632Z,306.96
2019-01-04T04:00:12.655Z,306.29
2019-01-04T04:01:12.571Z,306.25
2019-01-04T04:02:12.577Z,306.68
2019-01-04T04:03:12.599Z,306.43
2019-01-04T04:04:12.500Z,306.55
2019-01-04T04:05:12.496Z,306.59
2019-01-04T04:06:12.566Z,306.73
2019-01-04T04:07:12.508Z,306.75
2019-01-04T04:08:12.451Z,306.35
2019-01-04T04:09:12.446Z,306.45
2019-01-04T04:10:12.442Z,306.81
2019-01-04T04:11:12.464Z,306.67
2019-01-04T04:12:12.543Z,306.73
2019-01-04T04:13:12.462Z,306.71
2019-01-04T04:14:12.455Z,306.60
2019-01-04T04:15:12.385Z,306.50
2019-01-04T04:16:12.509Z,307.06
2019-01-04T04:17:12.438Z,306.03
2019-01-04T04:18:12.430Z,306.10
2019-01-04T04:19:12.409Z,306.28
2019-01-04T04:20:12.339Z,306.75
2019-01-04T04:21:12.383Z,306.60
2019-01-04T04:22:12.365Z,306.48
2019-01-04T04:23:12.330Z,305.84
2019-01-04T04:24:12.339Z,306.58
2019-01-04T04:25:12.328Z,306.25
2019-01-04T04:26:12.319Z,306.15
2019-01-04T04:27:12.300Z,305.89
2019-01-04T04:28:12.315Z,306.37
2019-01-04T04:29:12.269Z,306.52
2019-01-04T04:30:12.252Z,306.31
2019-01-04T04:31:12.243Z,306.37
2019-01-04T04:32:12.233Z,306.18
2019-01-04T04:33:12.211Z,306.30
2019-01-04T04:34:12.271Z,306.00
2019-01-04T04:35:12.200Z,306.24
2019-01-04T04:36:12.173Z,305.89
2019-01-04T04:37:12.174Z,306.11
2019-01-04T04:38:12.211Z,306.63
2019-01-04T04:39:12.170Z,306.40
2019-01-04T04:40:12.159Z,306.43
2019-01-04T04:41:12.135Z,306.62
2019-01-04T04:42:12.121Z,306.40
2019-01-04T04:43:12.135Z,307.11
2019-01-04T04:44:12.135Z,306.62
2019-01-04T04:45:12.115Z,306.35
2019-01-04T04:46:12.079Z,306.68
2019-01-04T04:47:12.097Z,306.88
2019-01-04T04:48:12.091Z,306.89
2019-01-04T04:49:12.047Z,306.55
2019-01-04T04:50:12.083Z,306.95
2019-01-04T04:51:12.031Z,306.64
2019-01-04T04:52:12.056Z,306.75
2019-01-04T04:53:12.010Z,306.48
2019-01-04T04:54:12.017Z,306.62
2019-01-04T04:55:11.992Z,306.60
2019-01-04T04:56:12.042Z,307.20
2019-01-04T04:57:12.007Z,306.39
2019-01-04T04:58:11.968Z,306.70
2019-01-04T04:59:12.030Z,306.48
2019-01-04T05:00:11.955Z,306.28
2019-01-04T05:01:11.920Z,306.36
2019-01-04T05:02:11.975Z,306.46
2019-01-04T05:03:11.909Z,306.29
2019-01-04T05:04:11.901Z,306.75
2019-01-04T05:05:11.892Z,306.51
2019-01-04T05:06:11.908Z,306.68
2019-01-04T05:07:11.956Z,306.33
2019-01-04T05:08:12.156Z,306.80
2019-01-04T05:09:11.855Z,306.90
2019-01-04T05:10:11.894Z,307.01
2019-01-04T05:11:11.824Z,307.03
2019-01-04T05:12:11.819Z,307.00
2019-01-04T05:13:11.827Z,307.17
2019-01-04T05:14:11.807Z,307.21
2019-01-04T05:15:11.802Z,307.01
2019-01-04T05:16:11.773Z,307.61
2019-01-04T05:17:11.776Z,306.86
2019-01-04T05:18:11.766Z,306.83
2019-01-04T05:19:11.730Z,306.74
2019-01-04T05:20:11.735Z,306.96
2019-01-04T05:21:11.758Z,306.81
2019-01-04T05:22:11.775Z,307.23
2019-01-04T05:23:11.802Z,307.22
2019-01-04T05:24:11.690Z,306.65
2019-01-04T05:25:11.688Z,307.11
2019-01-04T05:26:11.743Z,306.92
2019-01-04T05:27:11.694Z,307.12
2019-01-04T05:28:11.670Z,307.32
2019-01-04T05:29:11.668Z,307.17
2019-01-04T05:30:11.668Z,307.32
2019-01-04T05:31:11.631Z,307.16
2019-01-04T05:32:11.693Z,307.42
2019-01-04T05:33:11.617Z,307.28
2019-01-04T05:34:11.597Z,307.54
2019-01-04T05:35:11.604Z,307.74
2019-01-04T05:36:11.590Z,307.62
2019-01-04T05:37:11.581Z,307.29
2019-01-04T05:38:11.652Z,307.14
2019-01-04T05:39:11.523Z,307.51
2019-01-04T05:40:11.528Z,306.90
2019-01-04T05:41:11.495Z,306.92
2019-01-04T05:42:11.540Z,307.52
2019-01-04T05:43:11.585Z,306.67
2019-01-04T05:44:11.511Z,306.85
2019-01-04T05:45:11.579Z,306.69
2019-01-04T05:46:11.564Z,307.81
2019-01-04T05:47:12.327Z,306.98
2019-01-04T05:48:11.460Z,307.35
2019-01-04T05:49:11.429Z,307.31
2019-01-04T05:50:11.453Z,306.89
2019-01-04T05:51:11.447Z,307.27
2019-01-04T05:52:11.391Z,307.18
2019-01-04T05:53:11.402Z,307.30
2019-01-04T05:54:11.420Z,307.07
2019-01-04T05:55:11.396Z,307.33
2019-01-04T05:56:11.413Z,307.28
2019-01-04T05:57:11.346Z,307.35
2019-01-04T05:58:11.407Z,307.45
2019-01-04T05:59:11.337Z,307.35
2019-01-04T06:00:11.345Z,307.23
2019-01-04T06:01:11.392Z,307.15
2019-01-04T06:02:11.309Z,307.43
2019-01-04T06:03:11.344Z,307.52
2019-01-04T06:04:11.294Z,307.77
2019-01-04T06:05:11.284Z,307.29
2019-01-04T06:06:11.266Z,307.92
2019-01-04T06:07:11.253Z,307.30
2019-01-04T06:08:11.302Z,307.38
2019-01-04T06:09:11.271Z,307.46
2019-01-04T06:10:11.291Z,307.34
2019-01-04T06:11:11.235Z,307.66
2019-01-04T06:12:11.239Z,307.77
2019-01-04T06:13:11.264Z,307.86
2019-01-04T06:14:11.300Z,307.77
2019-01-04T06:15:11.426Z,307.95
2019-01-04T06:16:11.168Z,307.87
2019-01-04T06:17:11.209Z,307.53
2019-01-04T06:18:11.161Z,307.33
2019-01-04T06:19:11.231Z,307.70
2019-01-04T06:20:11.186Z,307.15
2019-01-04T06:21:11.279Z,308.10
2019-01-04T06:22:11.106Z,307.77
2019-01-04T06:23:11.164Z,307.38
2019-01-04T06:24:11.085Z,307.88
2019-01-04T06:25:11.082Z,308.04
2019-01-04T06:26:11.112Z,307.83
2019-01-04T06:27:11.094Z,307.74
2019-01-04T06:28:11.107Z,307.56
2019-01-04T06:29:11.021Z,307.61
2019-01-04T06:30:11.011Z,307.95
2019-01-04T06:31:11.013Z,307.63
2019-01-04T06:32:11.001Z,307.93
2019-01-04T06:33:10.981Z,308.33
2019-01-04T06:34:10.988Z,307.93
2019-01-04T06:35:10.996Z,308.00
2019-01-04T06:36:10.962Z,308.40
2019-01-04T06:37:11.010Z,308.21
2019-01-04T06:38:11.228Z,308.02
2019-01-04T06:39:11.088Z,307.79
2019-01-04T06:40:10.923Z,308.19
2019-01-04T06:41:10.929Z,308.42
2019-01-04T06:42:10.936Z,308.57
2019-01-04T06:43:10.871Z,307.99
2019-01-04T06:44:10.877Z,308.01
2019-01-04T06:45:10.854Z,307.16
2019-01-04T06:46:10.846Z,308.03
2019-01-04T06:47:10.887Z,307.93
2019-01-04T06:48:11.122Z,307.75
2019-01-04T06:49:10.846Z,307.70
2019-01-04T06:50:10.829Z,307.87
2019-01-04T06:51:10.801Z,307.73
2019-01-04T06:52:10.804Z,308.40
2019-01-04T06:53:10.773Z,308.08
2019-01-04T06:54:10.775Z,307.95
2019-01-04T06:55:10.910Z,308.10
2019-01-04T06:56:10.739Z,308.38
2019-01-04T06:57:10.717Z,307.63
2019-01-04T06:58:10.947Z,308.23
2019-01-04T06:59:10.894Z,308.94
2019-01-04T07:00:11.826Z,308.46
2019-01-04T07:01:10.738Z,308.20
2019-01-04T07:02:10.676Z,307.88
2019-01-04T07:03:10.681Z,308.05
2019-01-04T07:04:10.714Z,308.19
2019-01-04T07:05:10.675Z,307.72
2019-01-04T07:06:10.674Z,308.13
2019-01-04T07:07:10.711Z,308.20
2019-01-04T07:08:10.674Z,308.23
2019-01-04T07:09:10.776Z,307.63
2019-01-04T07:10:10.676Z,308.16
2019-01-04T07:11:10.593Z,308.19
2019-01-04T07:12:10.614Z,308.09
2019-01-04T07:13:10.583Z,308.05
2019-01-04T07:14:10.647Z,308.04
2019-01-04T07:15:10.540Z,308.04
2019-01-04T07:16:10.539Z,307.89
2019-01-04T07:17:11.347Z,307.56
2019-01-04T07:18:10.533Z,307.60
2019-01-04T07:19:10.513Z,307.32
2019-01-04T07:20:10.512Z,307.55
2019-01-04T07:21:10.526Z,307.63
2019-01-04T07:22:10.473Z,307.54
2019-01-04T07:23:10.490Z,307.48
2019-01-04T07:24:10.528Z,307.87
2019-01-04T07:25:10.513Z,307.61
2019-01-04T07:26:10.505Z,307.81
2019-01-04T07:27:10.495Z,307.67
2019-01-04T07:28:10.413Z,307.84
2019-01-04T07:29:10.394Z,307.78
2019-01-04T07:30:10.396Z,307.74
2019-01-04T07:31:10.419Z,307.66
2019-01-04T07:32:10.396Z,307.29
2019-01-04T07:33:10.375Z,307.61
2019-01-04T07:34:10.342Z,307.94
2019-01-04T07:35:10.350Z,308.08
2019-01-04T07:36:10.338Z,308.18
2019-01-04T07:37:10.387Z,307.87
2019-01-04T07:38:10.329Z,307.75
2019-01-04T07:39:10.292Z,307.44
2019-01-04T07:40:10.266Z,307.22
2019-01-04T07:41:10.290Z,307.64
2019-01-04T07:42:10.265Z,307.30
2019-01-04T07:43:16.295Z,307.56
2019-01-04T07:44:11.265Z,307.58
2019-01-04T07:45:10.207Z,308.15
2019-01-04T07:46:10.223Z,307.98
2019-01-04T07:47:10.231Z,308.28
2019-01-04T07:48:10.255Z,308.06
2019-01-04T07:49:10.199Z,307.89
2019-01-04T07:50:10.254Z,308.48
2019-01-04T07:51:10.170Z,308.66
2019-01-04T07:52:10.133Z,307.89
2019-01-04T07:53:10.160Z,307.48
2019-01-04T07:54:10.147Z,308.22
2019-01-04T07:55:10.150Z,308.63
2019-01-04T07:56:10.123Z,308.59
2019-01-04T07:57:10.153Z,308.71
2019-01-04T07:58:10.156Z,308.31
2019-01-04T07:59:10.094Z,307.96
2019-01-04T08:00:10.065Z,308.30
2019-01-04T08:01:10.037Z,308.28
2019-01-04T08:02:10.050Z,307.90
2019-01-04T08:03:10.065Z,308.42
2019-01-04T08:04:10.042Z,308.48
2019-01-04T08:05:10.038Z,308.60
2019-01-04T08:06:10.025Z,308.70
2019-01-04T08:07:10.100Z,308.60
2019-01-04T08:08:10.001Z,308.08
2019-01-04T08:09:09.977Z,308.63
2019-01-04T08:10:10.037Z,308.48
2019-01-04T08:11:10.140Z,308.09
2019-01-04T08:12:09.959Z,307.64
2019-01-04T08:13:20.476Z,308.43
2019-01-04T08:14:10.005Z,308.09
2019-01-04T08:15:10.759Z,307.67
2019-01-04T08:16:09.895Z,307.88
2019-01-04T08:17:09.918Z,308.00
2019-01-04T08:18:09.932Z,307.20
2019-01-04T08:19:09.888Z,307.37
2019-01-04T08:20:09.873Z,307.88
2019-01-04T08:21:09.878Z,308.50
2019-01-04T08:22:09.862Z,308.60
2019-01-04T08:23:09.876Z,308.27
2019-01-04T08:24:09.825Z,308.27
2019-01-04T08:25:09.831Z,307.40
2019-01-04T08:26:09.816Z,307.54
2019-01-04T08:27:09.800Z,307.62
2019-01-04T08:28:09.779Z,307.72
2019-01-04T08:29:10.793Z,308.35
2019-01-04T08:30:09.750Z,307.98
2019-01-04T08:31:09.734Z,308.13
2019-01-04T08:32:09.732Z,307.79
2019-01-04T08:33:09.793Z,307.86
2019-01-04T08:34:10.123Z,308.00
2019-01-04T08:35:09.960Z,307.45
2019-01-04T08:36:09.729Z,307.13
2019-01-04T08:37:10.192Z,307.37
2019-01-04T08:38:09.884Z,307.05
2019-01-04T08:39:09.977Z,307.63
2019-01-04T08:40:09.804Z,307.35
2019-01-04T08:41:09.765Z,307.16
2019-01-04T08:42:09.654Z,307.83
2019-01-04T08:43:09.631Z,307.27
2019-01-04T08:44:09.886Z,307.61
2019-01-04T08:45:09.651Z,307.25
2019-01-04T08:46:09.616Z,306.96
2019-01-04T08:47:09.619Z,307.58
2019-01-04T08:48:09.596Z,307.43
2019-01-04T08:49:09.682Z,307.57
2019-01-04T08:50:09.562Z,307.41
2019-01-04T08:51:09.613Z,307.53
2019-01-04T08:52:09.523Z,307.52
2019-01-04T08:53:09.518Z,307.77
2019-01-04T08:54:09.501Z,307.13
2019-01-04T08:55:09.529Z,307.62
2019-01-04T08:56:09.525Z,307.58
2019-01-04T08:57:09.510Z,307.17
2019-01-04T08:58:09.461Z,307.29
2019-01-04T08:59:09.449Z,306.91
2019-01-04T09:00:09.474Z,306.77
2019-01-04T09:01:09.438Z,306.77
2019-01-04T09:02:09.426Z,306.86
2019-01-04T09:03:09.452Z,307.21
2019-01-04T09:04:09.388Z,307.26
2019-01-04T09:05:09.391Z,307.14
2019-01-04T09:06:09.373Z,307.51
2019-01-04T09:07:09.398Z,307.10
2019-01-04T09:08:09.371Z,307.56
2019-01-04T09:09:09.396Z,307.23
2019-01-04T09:10:09.390Z,306.85
2019-01-04T09:11:09.354Z,306.81
2019-01-04T09:12:09.316Z,306.82
2019-01-04T09:13:09.342Z,306.80
2019-01-04T09:14:09.356Z,306.76
2019-01-04T09:15:09.283Z,307.62
2019-01-04T09:16:09.326Z,308.32
2019-01-04T09:17:09.402Z,308.03
2019-01-04T09:18:09.253Z,307.70
2019-01-04T09:19:09.281Z,307.61
2019-01-04T09:20:09.300Z,307.65
2019-01-04T09:21:09.247Z,307.66
2019-01-04T09:22:09.232Z,307.26
2019-01-04T09:23:09.259Z,307.21
2019-01-04T09:24:09.310Z,306.99
2019-01-04T09:25:09.227Z,307.08
2019-01-04T09:26:09.206Z,307.68
2019-01-04T09:27:09.870Z,307.28
2019-01-04T09:28:09.149Z,306.68
2019-01-04T09:29:09.167Z,307.52
2019-01-04T09:30:09.343Z,307.50
2019-01-04T09:31:09.153Z,307.38
2019-01-04T09:32:09.189Z,307.16
2019-01-04T09:33:09.910Z,307.54
2019-01-04T09:34:09.133Z,306.88
2019-01-04T09:35:09.156Z,307.36
2019-01-04T09:36:09.126Z,306.99
2019-01-04T09:37:09.116Z,306.91
2019-01-04T09:38:09.230Z,306.70
2019-01-04T09:39:09.302Z,306.94
2019-01-04T09:40:09.232Z,307.43
2019-01-04T09:41:09.326Z,307.09
2019-01-04T09:42:09.394Z,306.65
2019-01-04T09:43:09.052Z,306.97
2019-01-04T09:44:09.026Z,306.57
2019-01-04T09:45:09.029Z,306.51
2019-01-04T09:46:09.039Z,306.39
2019-01-04T09:47:08.979Z,307.08
2019-01-04T09:48:09.001Z,306.75
2019-01-04T09:49:08.950Z,307.13
2019-01-04T09:50:09.894Z,306.64
2019-01-04T09:51:09.044Z,306.36
2019-01-04T09:52:08.963Z,307.05
2019-01-04T09:53:08.970Z,306.80
2019-01-04T09:54:09.091Z,306.57
2019-01-04T09:55:08.922Z,307.36
2019-01-04T09:56:08.885Z,306.83
2019-01-04T09:57:08.866Z,307.01
2019-01-04T09:58:08.915Z,307.11
2019-01-04T09:59:08.847Z,307.05
2019-01-04T10:00:09.098Z,306.61
2019-01-04T10:01:08.901Z,306.48
2019-01-04T10:02:08.925Z,307.06
2019-01-04T10:03:09.349Z,306.91
2019-01-04T10:04:08.786Z,306.48
2019-01-04T10:05:08.798Z,306.82
2019-01-04T10:06:08.798Z,306.93
2019-01-04T10:07:08.881Z,306.93
2019-01-04T10:08:08.971Z,306.77
2019-01-04T10:09:08.769Z,306.52
2019-01-04T10:10:08.779Z,306.68
2019-01-04T10:11:08.716Z,307.08
2019-01-04T10:12:08.703Z,306.57
2019-01-04T10:13:08.918Z,306.74
2019-01-04T10:14:08.773Z,306.69
2019-01-04T10:15:08.675Z,306.26
2019-01-04T10:16:09.251Z,306.52
2019-01-04T10:17:08.731Z,306.12
2019-01-04T10:18:08.666Z,306.02
2019-01-04T10:19:08.814Z,306.72
2019-01-04T10:20:09.966Z,306.64
2019-01-04T10:21:08.719Z,306.63
2019-01-04T10:22:08.655Z,307.04
2019-01-04T10:23:08.867Z,307.26
2019-01-04T10:24:08.925Z,306.56
2019-01-04T10:25:08.655Z,306.78
2019-01-04T10:26:08.573Z,306.92
2019-01-04T10:27:08.558Z,306.94
2019-01-04T10:28:09.395Z,306.50
2019-01-04T10:29:09.396Z,306.51
2019-01-04T10:30:08.516Z,306.23
2019-01-04T10:31:08.607Z,306.74
2019-01-04T10:32:08.587Z,306.87
2019-01-04T10:33:08.533Z,306.88
2019-01-04T10:34:08.504Z,305.81
2019-01-04T10:35:10.700Z,306.06
2019-01-04T10:36:08.603Z,305.75
2019-01-04T10:37:08.824Z,305.73
2019-01-04T10:38:08.714Z,306.33
2019-01-04T10:39:08.514Z,305.65
2019-01-04T10:40:11.242Z,306.85
2019-01-04T10:41:10.291Z,306.82
2019-01-04T10:42:08.814Z,306.73
2019-01-04T10:43:08.647Z,306.46
2019-01-04T10:44:09.703Z,306.07
2019-01-04T10:45:09.401Z,306.48
2019-01-04T10:46:08.982Z,306.63
2019-01-04T10:47:08.443Z,306.83
2019-01-04T10:48:08.374Z,306.47
2019-01-04T10:49:08.481Z,306.49
2019-01-04T10:50:08.316Z,306.48
2019-01-04T10:51:08.615Z,306.30
2019-01-04T10:52:08.497Z,306.00
2019-01-04T10:53:08.326Z,306.33
2019-01-04T10:54:08.273Z,306.82
2019-01-04T10:55:08.281Z,306.56
2019-01-04T10:56:08.276Z,306.84
2019-01-04T10:57:08.240Z,306.75
2019-01-04T10:58:08.432Z,307.22
2019-01-04T10:59:08.236Z,307.38
2019-01-04T11:00:17.516Z,306.34
2019-01-04T11:01:17.525Z,306.58
2019-01-04T11:02:17.608Z,306.62
2019-01-04T11:04:36.942Z,304.98
2019-01-04T11:06:48.937Z,303.92
2019-01-04T11:07:48.053Z,306.42
2019-01-04T11:08:48.380Z,306.48
2019-01-04T11:09:49.471Z,306.17
2019-01-04T11:10:47.724Z,306.92
2019-01-04T11:11:47.548Z,306.20
2019-01-04T11:12:47.552Z,305.72
2019-01-04T11:13:47.522Z,306.15
2019-01-04T11:14:47.508Z,305.81
2019-01-04T11:15:47.493Z,305.83
2019-01-04T11:16:48.293Z,305.70
2019-01-04T11:17:48.294Z,305.61
2019-01-04T11:18:47.436Z,305.94
2019-01-04T11:19:47.525Z,305.64
2019-01-04T11:20:48.382Z,305.57
2019-01-04T11:23:04.116Z,303.16
2019-01-04T11:24:04.127Z,306.19
2019-01-04T11:25:04.074Z,306.52
2019-01-04T11:26:04.070Z,306.38
2019-01-04T11:27:04.789Z,306.32
2019-01-04T11:28:04.756Z,306.03
2019-01-04T11:29:04.002Z,306.46
2019-01-04T11:30:03.981Z,306.54
2019-01-04T11:31:03.967Z,306.07
2019-01-04T11:32:04.748Z,306.10
2019-01-04T11:33:03.949Z,306.07
2019-01-04T11:34:04.767Z,305.49
2019-01-04T11:35:04.070Z,306.08
2019-01-04T11:36:04.786Z,306.64
2019-01-04T11:37:03.874Z,306.41
2019-01-04T11:38:03.845Z,305.59
2019-01-04T11:39:03.911Z,305.76
2019-01-04T11:40:03.880Z,306.55
2019-01-04T11:41:03.860Z,306.03
2019-01-04T11:42:05.248Z,306.03
2019-01-04T11:43:04.747Z,306.10
2019-01-04T11:44:04.297Z,306.61
2019-01-04T11:45:03.824Z,306.71
2019-01-04T11:46:03.893Z,306.36
2019-01-04T11:47:03.807Z,306.34
2019-01-04T11:48:03.891Z,306.06
2019-01-04T11:49:06.360Z,305.99
2019-01-04T11:50:04.747Z,306.53
2019-01-04T11:51:04.026Z,305.71
2019-01-04T11:52:03.716Z,305.49
2019-01-04T11:53:03.770Z,306.08
2019-01-04T11:54:03.763Z,306.12
2019-01-04T11:55:03.801Z,306.49
2019-01-04T11:56:03.718Z,306.54
2019-01-04T11:57:03.731Z,306.37
2019-01-04T11:58:03.700Z,306.57
2019-01-04T11:59:03.820Z,305.70
2019-01-04T12:00:03.638Z,305.77
2019-01-04T12:01:03.647Z,305.29
2019-01-04T12:02:03.632Z,305.77
2019-01-04T12:03:03.778Z,305.91
2019-01-04T12:04:03.623Z,305.85
2019-01-04T12:05:04.373Z,305.95
2019-01-04T12:06:03.802Z,305.83
2019-01-04T12:07:03.575Z,306.20
2019-01-04T12:08:03.579Z,306.02
2019-01-04T12:09:03.572Z,305.92
2019-01-04T12:10:03.779Z,305.83
2019-01-04T12:11:03.552Z,305.89
2019-01-04T12:12:03.538Z,305.63
2019-01-04T12:13:03.537Z,306.12
2019-01-04T12:14:03.502Z,305.71
2019-01-04T12:15:04.531Z,305.79
2019-01-04T12:16:03.667Z,306.16
2019-01-04T12:17:03.452Z,306.08
2019-01-04T12:18:03.477Z,306.34
2019-01-04T12:19:03.412Z,305.67
2019-01-04T12:20:03.459Z,305.74
2019-01-04T12:21:03.465Z,306.05
2019-01-04T12:22:04.307Z,305.83
2019-01-04T12:23:04.293Z,305.51
2019-01-04T12:24:03.403Z,305.69
2019-01-04T12:25:03.436Z,306.03
2019-01-04T12:26:03.382Z,305.75
2019-01-04T12:27:03.426Z,306.39
2019-01-04T12:28:04.615Z,305.99
2019-01-04T12:29:03.319Z,305.56
2019-01-04T12:30:04.848Z,306.22
2019-01-04T12:31:03.312Z,305.82
2019-01-04T12:32:03.336Z,305.97